Nearby METAR Reports

 

EGNR - Hawarden (aut), United Kingdom
Distance from station: ESE 33mi, 53km
Updated: 14/06/2021 16:20
Few Clouds
Few Clouds
 Wind from NW
Wind: NW 13 mph , 20 km/h
Temperature: 16°C
Dew Point: 9°C
Humidity: 63%
Barometer: 1023 hPa
Clouds: Few Clouds
Visibility: 6 miles , 10 km
Cloud details: Few Clouds 1158 m
2021/06/14 15:20 EGNR 141520Z 32011KT 9999 FEW038 16/09 Q1023
EGOV - Valley Raf, United Kingdom
Distance from station: W 33mi, 53km
Updated: 14/06/2021 16:23
Mostly cloudy
Mostly cloudy
 Wind from NNW
Wind: NNW 7 mph , 11 km/h
Temperature: 17°C
Dew Point: 8°C
Humidity: 56%
Barometer: 1023 hPa
Clouds: Mostly cloudy
Visibility: 6 miles , 10 km
Cloud details: Few Clouds 914 m
Mostly cloudy 7620 m
2021/06/14 15:23 EGOV 141523Z 33006KT 9999 FEW030 BKN250 17/08 Q1023 NOSIG RMK BLU BLU
 
EGGP - Liverpool Airpor, United Kingdom
Distance from station: E 37mi, 59km
Updated: 14/06/2021 16:20
Clear
Clear
 Wind from WNW
Wind: WNW 14 mph , 22 km/h
Temperature: 17°C
Dew Point: 9°C
Humidity: 59%
Barometer: 1023 hPa
Clouds: Clear
Visibility: 6 miles , 10 km
2021/06/14 15:20 EGGP 141520Z AUTO 29012KT 9999 NCD 17/09 Q1023
EGNH - Blackpool Airpor, United Kingdom
Distance from station: NE 44mi, 72km
Updated: 14/06/2021 16:20
Few Clouds
Few Clouds
 Wind from WNW
Wind: WNW 14 mph , 22 km/h
Temperature: 15°C
Dew Point: 8°C
Humidity: 63%
Barometer: 1023 hPa
Clouds: Few Clouds
Visibility: 6 miles , 10 km
Cloud details: Few Clouds 762 m
2021/06/14 15:20 EGNH 141520Z 29012KT 9999 FEW025 15/08 Q1023
 
EGNO - Wharton, United Kingdom
Distance from station: NE 47mi, 76km
Updated: 14/06/2021 16:20
Partly cloudy
Partly cloudy
 Wind from W
Wind: W 12 mph , 19 km/h
Temperature: 15°C
Dew Point: 8°C
Humidity: 63%
Barometer: 1022 hPa
Clouds: Partly cloudy
Visibility: 6 miles , 10 km
Cloud details: Partly cloudy 823 m
2021/06/14 15:20 EGNO 141520Z 28010KT 9999 SCT027 15/08 Q1022
EGOS - Shawbury Raf, United Kingdom
Distance from station: SE 56mi, 89km
Updated: 14/06/2021 16:20
Mostly cloudy
Mostly cloudy
 Wind from NNW
Wind: NNW 12 mph , 19 km/h
Temperature: 18°C
Dew Point: 11°C
Humidity: 64%
Barometer: 1022 hPa
Clouds: Mostly cloudy
Visibility: 6 miles , 10 km
Cloud details: Few Clouds 853 m
Mostly cloudy 9144 m
2021/06/14 15:20 EGOS 141520Z 34010KT 9999 FEW028 BKN300 18/11 Q1022 NOSIG RMK BLU BLU
 
EGCC - Manchester Intl, United Kingdom
Distance from station: E 61mi, 98km
Updated: 14/06/2021 16:20
Clear
Clear
 Wind from WNW
Wind: WNW 12 mph , 19 km/h
Temperature: 15°C
Dew Point: 8°C
Humidity: 63%
Barometer: 1023 hPa
Clouds: Clear
Visibility: 6 miles , 10 km
2021/06/14 15:20 EGCC 141520Z AUTO 29010KT 9999 NCD 15/08 Q1023
EGNS - Isle Of Man/Rona, United Kingdom
Distance from station: NW 66mi, 107km
Updated: 14/06/2021 16:20
Few Clouds
Few Clouds
 Wind from W
Wind: W 14 mph , 22 km/h
Temperature: 15°C
Dew Point: 8°C
Humidity: 63%
Barometer: 1022 hPa
Clouds: Few Clouds
Visibility: 6 miles , 10 km
Cloud details: Few Clouds 853 m
2021/06/14 15:20 EGNS 141520Z 27012KT 9999 FEW028 15/08 Q1022 NOSIG
 
EGNM - Leeds And Bradfo, United Kingdom
Distance from station: ENE 95mi, 153km
Updated: 14/06/2021 16:20
Clear
Clear
 Wind from W
Wind: W 14 mph , 22 km/h
Temperature: 14°C
Dew Point: 7°C
Humidity: 63%
Barometer: 1021 hPa
Summary: Clear
Visibility: greater than 7 miles , 10 km
2021/06/14 15:20 EGNM 141520Z 28012KT CAVOK 14/07 Q1021
EGBB - Birmingham Airpo, United Kingdom
Distance from station: ESE 100mi, 161km
Updated: 14/06/2021 16:20
Partly cloudy
Partly cloudy
 Wind from NW
Wind: NW 10 mph , 17 km/h
Temperature: 21°C
Dew Point: 12°C
Humidity: 57%
Barometer: 1021 hPa
Clouds: Partly cloudy
Visibility: 6 miles , 10 km
Cloud details: Partly cloudy 1341 m
2021/06/14 15:20 EGBB 141520Z 32009KT 280V350 9999 SCT044 21/12 Q1021